createdAt,value
2023-05-11T00:00:04.062Z,0.00
2023-05-11T00:01:04.183Z,0.00
2023-05-11T00:02:04.187Z,0.00
2023-05-11T00:03:04.201Z,0.00
2023-05-11T00:04:04.214Z,0.00
2023-05-11T00:05:04.270Z,0.00
2023-05-11T00:06:04.193Z,0.00
2023-05-11T00:07:04.090Z,0.00
2023-05-11T00:08:04.083Z,0.00
2023-05-11T00:09:04.141Z,0.00
2023-05-11T00:10:04.158Z,0.00
2023-05-11T00:11:04.592Z,0.00
2023-05-11T00:12:04.368Z,0.00
2023-05-11T00:13:04.268Z,0.00
2023-05-11T00:14:04.278Z,0.00
2023-05-11T00:15:04.306Z,0.00
2023-05-11T00:16:04.182Z,0.00
2023-05-11T00:17:04.248Z,0.00
2023-05-11T00:18:04.151Z,0.00
2023-05-11T00:19:04.282Z,0.00
2023-05-11T00:20:04.270Z,0.00
2023-05-11T00:21:04.230Z,0.00
2023-05-11T00:22:05.055Z,0.00
2023-05-11T00:23:04.447Z,0.00
2023-05-11T00:24:04.289Z,0.00
2023-05-11T00:25:04.139Z,0.00
2023-05-11T00:26:03.961Z,0.00
2023-05-11T00:27:04.088Z,0.00
2023-05-11T00:28:04.141Z,0.00
2023-05-11T00:29:04.342Z,0.00
2023-05-11T00:30:04.107Z,0.00
2023-05-11T00:31:04.334Z,0.00
2023-05-11T00:32:04.153Z,0.00
2023-05-11T00:33:03.964Z,0.00
2023-05-11T00:34:04.815Z,0.00
2023-05-11T00:35:04.013Z,0.00
2023-05-11T00:36:04.356Z,0.00
2023-05-11T00:37:03.891Z,0.00
2023-05-11T00:38:04.302Z,0.00
2023-05-11T00:39:04.122Z,0.00
2023-05-11T00:40:04.012Z,0.00
2023-05-11T00:41:03.791Z,0.00
2023-05-11T00:42:03.949Z,0.00
2023-05-11T00:43:03.905Z,0.00
2023-05-11T00:44:04.050Z,0.00
2023-05-11T00:45:04.093Z,0.00
2023-05-11T00:46:04.161Z,0.00
2023-05-11T00:47:04.616Z,0.00
2023-05-11T00:48:03.956Z,0.00
2023-05-11T00:49:04.127Z,0.00
2023-05-11T00:50:04.537Z,0.00
2023-05-11T00:51:05.707Z,0.00
2023-05-11T00:52:04.272Z,0.00
2023-05-11T00:53:04.130Z,0.00
2023-05-11T00:54:04.127Z,0.00
2023-05-11T00:55:03.988Z,0.00
2023-05-11T00:56:04.171Z,0.00
2023-05-11T00:57:03.985Z,0.00
2023-05-11T00:58:04.502Z,0.00
2023-05-11T00:59:04.557Z,0.00
2023-05-11T01:00:03.706Z,0.00
2023-05-11T01:01:03.681Z,0.00
2023-05-11T01:02:03.762Z,0.00
2023-05-11T01:03:03.511Z,0.00
2023-05-11T01:04:03.967Z,0.00
2023-05-11T01:05:03.609Z,0.00
2023-05-11T01:06:03.533Z,0.00
2023-05-11T01:07:03.569Z,0.00
2023-05-11T01:08:03.533Z,0.00
2023-05-11T01:09:03.613Z,0.00
2023-05-11T01:10:03.588Z,0.00
2023-05-11T01:11:03.412Z,0.00
2023-05-11T01:12:03.564Z,0.00
2023-05-11T01:13:03.607Z,0.00
2023-05-11T01:14:03.703Z,0.00
2023-05-11T01:15:03.495Z,0.00
2023-05-11T01:16:03.407Z,0.00
2023-05-11T01:17:03.882Z,0.00
2023-05-11T01:18:03.402Z,0.00
2023-05-11T01:19:03.480Z,0.00
2023-05-11T01:20:03.313Z,0.00
2023-05-11T01:21:05.171Z,0.00
2023-05-11T01:22:03.547Z,0.00
2023-05-11T01:23:03.495Z,0.00
2023-05-11T01:24:03.632Z,0.00
2023-05-11T01:25:03.466Z,0.00
2023-05-11T01:26:03.637Z,0.00
2023-05-11T01:27:03.700Z,0.00
2023-05-11T01:28:03.831Z,0.00
2023-05-11T01:29:03.621Z,0.00
2023-05-11T01:30:03.345Z,0.00
2023-05-11T01:31:03.405Z,0.00
2023-05-11T01:32:05.324Z,0.00
2023-05-11T01:33:03.741Z,0.00
2023-05-11T01:34:04.032Z,0.00
2023-05-11T01:35:04.124Z,0.00
2023-05-11T01:36:03.300Z,0.00
2023-05-11T01:37:03.236Z,0.00
2023-05-11T01:38:03.092Z,0.00
2023-05-11T01:39:03.083Z,0.00
2023-05-11T01:40:03.121Z,0.00
2023-05-11T01:41:03.076Z,0.00
2023-05-11T01:42:03.042Z,0.00
2023-05-11T01:43:03.143Z,0.00
2023-05-11T01:44:03.320Z,0.00
2023-05-11T01:45:03.508Z,0.00
2023-05-11T01:46:03.600Z,0.00
2023-05-11T01:47:04.357Z,0.00
2023-05-11T01:48:04.708Z,0.00
2023-05-11T01:49:03.814Z,0.00
2023-05-11T01:50:03.962Z,0.00
2023-05-11T01:51:07.234Z,0.00
2023-05-11T01:52:03.298Z,0.00
2023-05-11T01:53:02.930Z,0.00
2023-05-11T01:54:02.959Z,0.00
2023-05-11T01:55:02.945Z,0.00
2023-05-11T01:56:02.891Z,0.00
2023-05-11T01:57:11.378Z,0.00
2023-05-11T01:58:02.957Z,0.00
2023-05-11T01:59:04.697Z,0.00
2023-05-11T02:00:04.031Z,0.00
2023-05-11T02:01:03.164Z,0.00
2023-05-11T02:02:03.078Z,0.00
2023-05-11T02:03:02.974Z,0.00
2023-05-11T02:04:04.054Z,0.00
2023-05-11T02:05:04.148Z,0.00
2023-05-11T02:06:04.731Z,0.00
2023-05-11T02:07:02.744Z,0.00
2023-05-11T02:08:02.835Z,0.00
2023-05-11T02:09:03.694Z,0.00
2023-05-11T02:10:02.807Z,0.00
2023-05-11T02:11:02.806Z,0.00
2023-05-11T02:12:02.850Z,0.00
2023-05-11T02:13:04.471Z,0.00
2023-05-11T02:14:02.722Z,0.00
2023-05-11T02:15:02.726Z,0.00
2023-05-11T02:16:04.609Z,0.00
2023-05-11T02:17:02.823Z,0.00
2023-05-11T02:18:02.725Z,0.00
2023-05-11T02:19:10.901Z,0.00
2023-05-11T02:20:03.711Z,0.00
2023-05-11T02:21:03.625Z,0.00
2023-05-11T02:22:35.178Z,0.00
2023-05-11T02:23:03.084Z,0.00
2023-05-11T02:26:45.371Z,0.00
2023-05-11T02:27:45.729Z,0.00
2023-05-11T02:28:45.312Z,0.00
2023-05-11T02:29:47.708Z,0.00
2023-05-11T02:30:46.393Z,0.00
2023-05-11T02:31:49.270Z,0.00
2023-05-11T02:32:53.842Z,0.00
2023-05-11T02:34:46.914Z,0.00
2023-05-11T02:36:00.180Z,0.00
2023-05-11T02:36:51.599Z,0.00
2023-05-11T02:37:55.385Z,0.00
2023-05-11T02:38:57.103Z,0.00
2023-05-11T02:39:52.573Z,0.00
2023-05-11T02:41:01.215Z,0.00
2023-05-11T02:42:20.599Z,0.00
2023-05-11T02:43:01.359Z,0.00
2023-05-11T02:43:49.248Z,0.00
2023-05-11T02:45:12.233Z,0.00
2023-05-11T02:45:52.415Z,0.00
2023-05-11T02:46:47.553Z,0.00
2023-05-11T02:47:46.735Z,0.00
2023-05-11T02:48:49.595Z,0.00
2023-05-11T02:50:01.633Z,0.00
2023-05-11T02:50:50.369Z,0.00
2023-05-11T02:51:47.110Z,0.00
2023-05-11T02:52:47.645Z,0.00
2023-05-11T02:53:50.712Z,0.00
2023-05-11T02:54:49.263Z,0.00
2023-05-11T02:55:49.206Z,0.00
2023-05-11T02:56:47.533Z,0.00
2023-05-11T02:57:47.121Z,0.00
2023-05-11T02:59:07.515Z,0.00
2023-05-11T02:59:46.943Z,0.00
2023-05-11T03:00:46.585Z,0.00
2023-05-11T03:01:47.916Z,0.00
2023-05-11T03:03:01.741Z,0.00
2023-05-11T03:03:53.904Z,0.00
2023-05-11T03:04:47.458Z,0.00
2023-05-11T03:05:46.930Z,0.00
2023-05-11T03:06:45.922Z,0.00
2023-05-11T03:07:48.236Z,0.00
2023-05-11T03:08:45.873Z,0.00
2023-05-11T03:09:45.962Z,0.00
2023-05-11T03:10:46.188Z,0.00
2023-05-11T03:11:48.077Z,0.00
2023-05-11T03:12:45.926Z,0.00
2023-05-11T03:13:46.147Z,0.00
2023-05-11T03:14:46.765Z,0.00
2023-05-11T03:15:45.969Z,0.00
2023-05-11T03:16:46.024Z,0.00
2023-05-11T03:17:47.921Z,0.00
2023-05-11T03:18:45.882Z,0.00
2023-05-11T03:19:46.070Z,0.00
2023-05-11T03:20:47.111Z,0.00
2023-05-11T03:21:48.063Z,0.00
2023-05-11T03:23:20.708Z,0.00
2023-05-11T03:24:52.251Z,0.00
2023-05-11T03:25:29.169Z,0.00
2023-05-11T03:25:59.602Z,0.00
2023-05-11T03:26:59.432Z,0.00
2023-05-11T03:32:29.938Z,0.00
2023-05-11T03:33:29.718Z,0.00
2023-05-11T03:34:31.073Z,0.00
2023-05-11T03:35:31.663Z,0.00
2023-05-11T03:36:31.528Z,0.00
2023-05-11T03:37:30.757Z,0.00
2023-05-11T03:38:31.022Z,0.00
2023-05-11T03:39:30.600Z,0.00
2023-05-11T03:40:30.989Z,0.00
2023-05-11T03:41:30.699Z,0.00
2023-05-11T03:42:31.026Z,0.00
2023-05-11T03:43:31.079Z,0.00
2023-05-11T03:44:33.346Z,0.00
2023-05-11T03:45:40.630Z,0.00
2023-05-11T03:46:33.210Z,0.00
2023-05-11T03:47:36.385Z,0.00
2023-05-11T03:48:35.087Z,0.00
2023-05-11T03:49:35.678Z,0.00
2023-05-11T03:50:30.668Z,0.00
2023-05-11T03:51:33.982Z,0.00
2023-05-11T03:52:40.508Z,0.00
2023-05-11T03:53:32.670Z,0.00
2023-05-11T03:55:15.927Z,0.00
2023-05-11T03:56:06.642Z,0.00
2023-05-11T03:57:30.492Z,0.00
2023-05-11T03:58:10.185Z,0.00
2023-05-11T03:58:59.985Z,0.00
2023-05-11T03:59:42.777Z,5.62
2023-05-11T04:00:54.414Z,5.62
2023-05-11T04:01:59.207Z,5.62
2023-05-11T04:03:04.781Z,5.62
2023-05-11T04:03:40.439Z,5.62
2023-05-11T04:04:38.064Z,5.62
2023-05-11T04:05:45.178Z,5.62
2023-05-11T04:06:38.480Z,5.62
2023-05-11T04:07:46.301Z,5.62
2023-05-11T04:08:38.178Z,5.62
2023-05-11T04:09:37.308Z,5.62
2023-05-11T04:10:42.260Z,5.62
2023-05-11T04:11:41.701Z,5.62
2023-05-11T04:12:43.244Z,5.62
2023-05-11T04:13:39.042Z,5.62
2023-05-11T04:14:38.256Z,11.25
2023-05-11T04:15:39.075Z,11.25
2023-05-11T04:16:36.512Z,11.25
2023-05-11T04:17:36.885Z,11.25
2023-05-11T04:18:36.692Z,11.25
2023-05-11T04:19:40.053Z,11.25
2023-05-11T04:20:39.822Z,11.25
2023-05-11T04:21:40.223Z,11.25
2023-05-11T04:23:10.495Z,11.25
2023-05-11T04:23:44.469Z,11.25
2023-05-11T04:24:38.230Z,11.25
2023-05-11T04:25:40.045Z,11.25
2023-05-11T04:26:36.991Z,11.25
2023-05-11T04:27:43.633Z,11.25
2023-05-11T04:28:39.161Z,11.25
2023-05-11T04:29:37.578Z,11.25
2023-05-11T04:30:37.424Z,11.25
2023-05-11T04:31:36.510Z,11.25
2023-05-11T04:32:36.107Z,11.25
2023-05-11T04:33:36.495Z,11.25
2023-05-11T04:34:53.770Z,11.25
2023-05-11T04:35:49.247Z,11.25
2023-05-11T04:36:38.521Z,11.25
2023-05-11T04:37:40.076Z,11.25
2023-05-11T04:38:39.020Z,16.88
2023-05-11T04:39:37.715Z,16.88
2023-05-11T04:40:37.784Z,16.88
2023-05-11T04:41:39.481Z,16.88
2023-05-11T04:42:37.024Z,16.88
2023-05-11T04:43:44.690Z,16.88
2023-05-11T04:44:38.866Z,16.88
2023-05-11T04:45:40.068Z,16.88
2023-05-11T04:46:39.269Z,16.88
2023-05-11T04:47:36.084Z,16.88
2023-05-11T04:48:50.982Z,22.50
2023-05-11T04:49:38.866Z,22.50
2023-05-11T04:50:36.414Z,22.50
2023-05-11T04:51:36.124Z,22.50
2023-05-11T04:52:36.042Z,28.12
2023-05-11T04:53:36.079Z,28.12
2023-05-11T04:54:36.087Z,28.12
2023-05-11T04:55:36.150Z,28.12
2023-05-11T04:56:36.391Z,28.12
2023-05-11T04:57:37.055Z,28.12
2023-05-11T05:04:06.176Z,33.75
2023-05-11T05:16:13.282Z,39.38
2023-05-11T05:18:50.727Z,45.00
2023-05-11T05:28:23.928Z,56.25
2023-05-11T05:29:40.208Z,56.25
2023-05-11T05:30:44.467Z,56.25
2023-05-11T05:31:49.317Z,56.25
2023-05-11T05:32:27.152Z,61.88
2023-05-11T05:36:18.194Z,61.88
2023-05-11T05:37:24.654Z,56.25
2023-05-11T05:50:49.518Z,73.12
2023-05-11T05:52:49.978Z,73.12
2023-05-11T05:53:42.759Z,67.50
2023-05-11T05:56:30.528Z,67.50
2023-05-11T05:57:27.155Z,61.88
2023-05-11T05:57:44.105Z,61.88
2023-05-11T05:59:02.845Z,61.88
2023-05-11T05:59:38.561Z,61.88
2023-05-11T06:00:36.797Z,61.88
2023-05-11T06:04:46.337Z,56.25
2023-05-11T06:05:50.808Z,56.25
2023-05-11T06:06:47.819Z,56.25
2023-05-11T06:07:58.002Z,56.25
2023-05-11T06:08:48.340Z,56.25
2023-05-11T06:09:47.348Z,50.62
2023-05-11T06:10:47.259Z,50.62
2023-05-11T06:11:47.361Z,50.62
2023-05-11T06:12:47.265Z,50.62
2023-05-11T06:13:47.257Z,50.62
2023-05-11T06:14:48.284Z,50.62
2023-05-11T06:15:48.653Z,50.62
2023-05-11T06:17:16.528Z,56.25
2023-05-11T06:55:39.669Z,123.75
2023-05-11T06:57:14.433Z,129.38
2023-05-11T07:02:08.524Z,135.00
2023-05-11T07:03:08.648Z,135.00
2023-05-11T07:04:08.485Z,135.00
2023-05-11T07:05:09.196Z,140.62
2023-05-11T07:06:08.526Z,140.62
2023-05-11T07:07:08.398Z,146.25
2023-05-11T07:08:08.438Z,151.88
2023-05-11T07:09:08.383Z,151.88
2023-05-11T07:10:08.366Z,157.50
2023-05-11T07:11:08.388Z,151.88
2023-05-11T07:12:10.758Z,157.50
2023-05-11T07:13:10.314Z,157.50
2023-05-11T07:14:09.999Z,163.12
2023-05-11T07:15:10.076Z,168.75
2023-05-11T07:16:10.360Z,174.38
2023-05-11T07:17:10.179Z,180.00
2023-05-11T07:18:09.995Z,180.00
2023-05-11T07:19:10.056Z,185.62
2023-05-11T07:20:12.993Z,191.25
2023-05-11T07:21:14.649Z,196.88
2023-05-11T07:22:11.838Z,196.88
2023-05-11T07:23:10.914Z,196.88
2023-05-11T07:24:11.245Z,202.50
2023-05-11T07:25:10.831Z,202.50
2023-05-11T07:26:11.778Z,202.50
2023-05-11T07:27:11.126Z,202.50
2023-05-11T07:28:11.546Z,202.50
2023-05-11T07:29:11.586Z,202.50
2023-05-11T07:30:19.564Z,202.50
2023-05-11T07:31:11.359Z,202.50
2023-05-11T07:32:09.788Z,202.50
2023-05-11T07:33:10.428Z,202.50
2023-05-11T07:34:10.347Z,202.50
2023-05-11T07:35:12.937Z,202.50
2023-05-11T07:36:10.850Z,202.50
2023-05-11T07:37:11.408Z,202.50
2023-05-11T07:38:09.820Z,202.50
2023-05-11T07:39:09.970Z,202.50
2023-05-11T07:40:10.589Z,202.50
2023-05-11T07:41:13.015Z,196.88
2023-05-11T07:42:25.159Z,196.88
2023-05-11T07:43:36.992Z,191.25
2023-05-11T07:44:09.753Z,191.25
2023-05-11T07:45:09.520Z,191.25
2023-05-11T07:46:09.453Z,191.25
2023-05-11T07:47:09.257Z,196.88
2023-05-11T07:48:43.332Z,196.88
2023-05-11T07:49:18.648Z,196.88
2023-05-11T07:50:13.530Z,202.50
2023-05-11T07:51:09.247Z,202.50
2023-05-11T07:52:09.307Z,196.88
2023-05-11T07:53:10.873Z,196.88
2023-05-11T07:54:10.554Z,196.88
2023-05-11T07:55:09.240Z,202.50
2023-05-11T07:56:09.937Z,202.50
2023-05-11T07:57:09.179Z,196.88
2023-05-11T07:58:09.250Z,202.50
2023-05-11T07:59:09.149Z,202.50
2023-05-11T08:00:41.867Z,208.12
2023-05-11T08:01:09.372Z,202.50
2023-05-11T08:02:43.074Z,202.50
2023-05-11T08:03:11.041Z,202.50
2023-05-11T08:04:12.566Z,208.12
2023-05-11T08:05:10.916Z,208.12
2023-05-11T08:06:09.942Z,208.12
2023-05-11T08:07:09.170Z,202.50
2023-05-11T08:08:42.612Z,202.50
2023-05-11T08:09:41.838Z,202.50
2023-05-11T08:10:10.488Z,196.88
2023-05-11T08:11:09.202Z,196.88
2023-05-11T08:12:09.544Z,191.25
2023-05-11T08:13:15.167Z,191.25
2023-05-11T08:14:09.700Z,191.25
2023-05-11T08:15:12.820Z,196.88
2023-05-11T08:16:17.216Z,202.50
2023-05-11T08:17:12.283Z,208.12
2023-05-11T08:18:09.180Z,208.12
2023-05-11T08:19:09.152Z,208.12
2023-05-11T08:20:08.856Z,208.12
2023-05-11T08:21:10.763Z,202.50
2023-05-11T08:22:10.546Z,191.25
2023-05-11T08:23:08.946Z,180.00
2023-05-11T08:24:08.986Z,168.75
2023-05-11T08:25:09.031Z,157.50
2023-05-11T08:26:08.952Z,146.25
2023-05-11T08:27:09.331Z,135.00
2023-05-11T08:28:08.947Z,129.38
2023-05-11T08:29:10.209Z,123.75
2023-05-11T08:30:11.768Z,118.12
2023-05-11T08:31:09.587Z,118.12
2023-05-11T08:32:09.265Z,118.12
2023-05-11T08:33:29.072Z,118.12
2023-05-11T08:34:18.143Z,118.12
2023-05-11T08:40:03.919Z,180.00
2023-05-11T08:41:20.566Z,196.88
2023-05-11T08:42:09.596Z,208.12
2023-05-11T08:43:09.208Z,213.75
2023-05-11T08:44:06.055Z,219.38
2023-05-11T08:45:05.878Z,219.38
2023-05-11T08:46:06.437Z,219.38
2023-05-11T08:48:06.104Z,208.12
2023-05-11T08:51:47.324Z,202.50
2023-05-11T08:52:47.327Z,202.50
2023-05-11T08:53:47.361Z,202.50
2023-05-11T08:54:47.411Z,202.50
2023-05-11T08:55:47.371Z,208.12
2023-05-11T08:56:47.300Z,208.12
2023-05-11T08:57:47.115Z,213.75
2023-05-11T08:58:47.308Z,213.75
2023-05-11T08:59:47.123Z,213.75
2023-05-11T09:00:47.574Z,219.38
2023-05-11T09:01:48.329Z,219.38
2023-05-11T09:02:48.968Z,219.38
2023-05-11T09:03:48.486Z,213.75
2023-05-11T09:04:49.371Z,208.12
2023-05-11T09:06:35.091Z,202.50
2023-05-11T09:06:53.278Z,191.25
2023-05-11T09:07:49.396Z,185.62
2023-05-11T09:09:03.097Z,180.00
2023-05-11T09:23:53.375Z,185.62
2023-05-11T09:28:08.899Z,202.50
2023-05-11T09:29:42.414Z,202.50
2023-05-11T09:31:01.497Z,213.75
2023-05-11T09:31:30.323Z,219.38
2023-05-11T09:32:14.126Z,219.38
2023-05-11T09:35:59.226Z,236.25
2023-05-11T09:37:58.864Z,241.88
2023-05-11T09:38:27.115Z,253.12
2023-05-11T09:42:14.728Z,281.25
2023-05-11T09:43:16.006Z,286.88
2023-05-11T09:44:14.418Z,286.88
2023-05-11T09:45:14.289Z,286.88
2023-05-11T09:46:14.521Z,286.88
2023-05-11T09:47:15.444Z,281.25
2023-05-11T09:48:17.446Z,281.25
2023-05-11T09:49:16.421Z,281.25
2023-05-11T09:50:29.004Z,275.62
2023-05-11T09:51:21.554Z,270.00
2023-05-11T09:52:56.179Z,270.00
2023-05-11T09:53:30.772Z,264.38
2023-05-11T09:54:34.366Z,264.38
2023-05-11T09:55:17.816Z,264.38
2023-05-11T09:56:21.113Z,264.38
2023-05-11T09:57:16.984Z,270.00
2023-05-11T09:58:20.532Z,270.00
2023-05-11T09:59:54.211Z,270.00
2023-05-11T10:00:17.613Z,270.00
2023-05-11T10:01:15.388Z,270.00
2023-05-11T10:02:42.587Z,270.00
2023-05-11T10:03:18.155Z,264.38
2023-05-11T10:04:56.232Z,258.75
2023-05-11T10:06:20.684Z,253.12
2023-05-11T10:08:24.611Z,241.88
2023-05-11T10:08:28.973Z,230.62
2023-05-11T10:09:28.035Z,225.00
2023-05-11T10:10:54.410Z,225.00
2023-05-11T10:11:30.796Z,225.00
2023-05-11T10:15:34.205Z,236.25
2023-05-11T10:23:10.461Z,225.00
2023-05-11T10:24:22.467Z,225.00
2023-05-11T10:28:51.481Z,230.62
2023-05-11T10:30:09.785Z,236.25
2023-05-11T10:31:10.993Z,236.25
2023-05-11T10:38:41.446Z,241.88
2023-05-11T10:42:56.033Z,241.88
2023-05-11T10:44:05.055Z,247.50
2023-05-11T10:44:56.600Z,247.50
2023-05-11T10:46:37.752Z,253.12
2023-05-11T10:47:08.378Z,258.75
2023-05-11T10:48:03.481Z,270.00
2023-05-11T10:49:40.842Z,270.00
2023-05-11T10:50:24.034Z,270.00
2023-05-11T10:50:57.843Z,264.38
2023-05-11T10:54:53.374Z,241.88
2023-05-11T10:58:50.051Z,219.38
2023-05-11T10:59:50.522Z,219.38
2023-05-11T11:00:58.229Z,219.38
2023-05-11T11:02:16.826Z,219.38
2023-05-11T11:03:24.649Z,219.38
2023-05-11T11:10:32.436Z,180.00
2023-05-11T11:11:37.262Z,174.38
2023-05-11T11:12:38.035Z,168.75
2023-05-11T11:17:09.198Z,163.12
2023-05-11T11:19:32.709Z,163.12
2023-05-11T11:19:44.519Z,168.75
2023-05-11T11:21:56.298Z,174.38
2023-05-11T11:22:54.394Z,185.62
2023-05-11T11:23:08.099Z,185.62
2023-05-11T11:24:46.587Z,185.62
2023-05-11T11:25:11.240Z,180.00
2023-05-11T11:26:21.310Z,174.38
2023-05-11T11:27:27.700Z,168.75
2023-05-11T11:28:13.261Z,163.12
2023-05-11T11:29:51.918Z,163.12
2023-05-11T11:32:52.215Z,168.75
2023-05-11T11:34:12.959Z,151.88
2023-05-11T11:35:40.013Z,140.62
2023-05-11T11:37:16.437Z,135.00
2023-05-11T11:37:36.220Z,135.00
2023-05-11T11:39:03.554Z,146.25
2023-05-11T11:39:36.328Z,163.12
2023-05-11T11:40:55.109Z,168.75
2023-05-11T11:42:05.609Z,168.75
2023-05-11T11:42:23.149Z,168.75
2023-05-11T11:44:09.892Z,168.75
2023-05-11T11:44:28.800Z,174.38
2023-05-11T11:45:51.217Z,168.75
2023-05-11T11:46:42.221Z,168.75
2023-05-11T11:47:57.909Z,168.75
2023-05-11T11:48:44.488Z,174.38
2023-05-11T11:49:29.870Z,185.62
2023-05-11T11:50:29.357Z,196.88
2023-05-11T11:51:53.485Z,202.50
2023-05-11T11:52:53.059Z,208.12
2023-05-11T11:53:20.695Z,208.12
2023-05-11T11:54:57.408Z,208.12
2023-05-11T11:55:46.261Z,208.12
2023-05-11T11:56:53.465Z,208.12
2023-05-11T11:57:40.648Z,213.75
2023-05-11T11:58:56.238Z,213.75
2023-05-11T11:59:20.335Z,213.75
2023-05-11T12:00:59.249Z,219.38
2023-05-11T12:01:22.274Z,225.00
2023-05-11T12:02:59.148Z,230.62
2023-05-11T12:03:20.890Z,230.62
2023-05-11T12:04:20.535Z,241.88
2023-05-11T12:05:53.196Z,253.12
2023-05-11T12:06:26.490Z,258.75
2023-05-11T12:07:55.441Z,270.00
2023-05-11T12:08:51.011Z,275.62
2023-05-11T12:09:26.701Z,281.25
2023-05-11T12:10:52.813Z,281.25
2023-05-11T12:11:49.314Z,286.88
2023-05-11T12:12:22.128Z,292.50
2023-05-11T12:13:58.785Z,298.12
2023-05-11T12:14:20.303Z,303.75
2023-05-11T12:15:55.959Z,309.38
2023-05-11T12:16:50.905Z,315.00
2023-05-11T12:17:31.918Z,315.00
2023-05-11T12:18:56.782Z,315.00
2023-05-11T12:19:20.168Z,309.38
2023-05-11T12:20:57.908Z,303.75
2023-05-11T12:21:25.922Z,286.88
2023-05-11T12:22:54.178Z,281.25
2023-05-11T12:23:56.435Z,270.00
2023-05-11T12:24:54.754Z,258.75
2023-05-11T12:25:25.118Z,247.50
2023-05-11T12:26:54.382Z,247.50
2023-05-11T12:29:25.411Z,264.38
2023-05-11T12:30:31.075Z,264.38
2023-05-11T12:32:57.723Z,270.00
2023-05-11T12:33:54.946Z,275.62
2023-05-11T12:34:55.784Z,281.25
2023-05-11T12:35:55.741Z,275.62
2023-05-11T12:37:10.179Z,275.62
2023-05-11T12:37:54.994Z,270.00
2023-05-11T12:40:22.742Z,247.50
2023-05-11T12:41:25.688Z,247.50
2023-05-11T12:42:22.877Z,247.50
2023-05-11T12:43:30.668Z,236.25
2023-05-11T12:44:32.465Z,219.38
2023-05-11T12:45:27.323Z,219.38
2023-05-11T12:46:56.616Z,213.75
2023-05-11T12:47:31.890Z,202.50
2023-05-11T12:50:23.032Z,196.88
2023-05-11T12:51:41.515Z,196.88
2023-05-11T12:53:50.860Z,213.75
2023-05-11T12:55:03.319Z,213.75
2023-05-11T12:55:50.866Z,213.75
2023-05-11T12:56:52.465Z,213.75
2023-05-11T12:58:06.921Z,213.75
2023-05-11T12:58:50.976Z,219.38
2023-05-11T13:01:19.115Z,219.38
2023-05-11T13:02:29.140Z,213.75
2023-05-11T13:03:28.815Z,213.75
2023-05-11T13:04:19.362Z,213.75
2023-05-11T13:05:29.223Z,208.12
2023-05-11T13:06:54.304Z,202.50
2023-05-11T13:07:26.930Z,196.88
2023-05-11T13:08:20.775Z,196.88
2023-05-11T13:11:25.939Z,196.88
2023-05-11T13:12:34.664Z,196.88
2023-05-11T13:14:13.094Z,196.88
2023-05-11T13:14:27.242Z,196.88
2023-05-11T13:16:02.465Z,196.88
2023-05-11T13:16:29.508Z,191.25
2023-05-11T13:18:01.906Z,191.25
2023-05-11T13:18:30.528Z,196.88
2023-05-11T13:21:24.233Z,202.50
2023-05-11T13:22:28.128Z,202.50
2023-05-11T13:23:24.297Z,202.50
2023-05-11T13:25:02.247Z,208.12
2023-05-11T13:25:28.764Z,208.12
2023-05-11T13:27:01.955Z,213.75
2023-05-11T13:27:29.245Z,213.75
2023-05-11T13:29:09.369Z,208.12
2023-05-11T13:29:30.118Z,208.12
2023-05-11T13:30:27.559Z,196.88
2023-05-11T13:31:30.271Z,191.25
2023-05-11T13:33:02.045Z,174.38
2023-05-11T13:33:27.064Z,163.12
2023-05-11T13:35:09.870Z,151.88
2023-05-11T13:35:37.560Z,140.62
2023-05-11T13:36:32.618Z,129.38
2023-05-11T13:37:58.943Z,123.75
2023-05-11T13:39:01.453Z,123.75
2023-05-11T13:39:28.641Z,123.75
2023-05-11T13:40:55.945Z,129.38
2023-05-11T13:43:46.430Z,151.88
2023-05-11T13:47:44.697Z,185.62
2023-05-11T13:49:22.342Z,191.25
2023-05-11T13:57:00.729Z,151.88
2023-05-11T13:58:40.041Z,146.25
2023-05-11T13:59:12.735Z,146.25
2023-05-11T14:04:01.369Z,140.62
2023-05-11T14:05:42.615Z,140.62
2023-05-11T14:06:38.456Z,135.00
2023-05-11T14:13:38.194Z,112.50
2023-05-11T14:14:55.411Z,112.50
2023-05-11T14:21:09.167Z,90.00
2023-05-11T14:22:15.199Z,84.38
2023-05-11T14:23:10.208Z,84.38
2023-05-11T14:34:53.367Z,95.62
2023-05-11T14:49:46.874Z,129.38
2023-05-11T15:00:07.867Z,140.62
2023-05-11T15:09:00.889Z,112.50
2023-05-11T15:15:30.035Z,90.00
2023-05-11T15:28:07.172Z,73.12
2023-05-11T15:29:46.942Z,73.12
2023-05-11T15:31:00.520Z,61.88
2023-05-11T15:31:16.164Z,61.88
2023-05-11T15:32:43.584Z,61.88
